sensor_id;sensor_type;location;lat;lon;timestamp;pressure;altitude;pressure_sealevel;temperature
65316;BMP280;51920;53.952;10.292;2022-11-02T00:00:23;101045.56;;;10.90
65316;BMP280;51920;53.952;10.292;2022-11-02T00:02:49;101048.28;;;10.90
65316;BMP280;51920;53.952;10.292;2022-11-02T00:05:14;101046.72;;;10.89
65316;BMP280;51920;53.952;10.292;2022-11-02T00:07:40;101052.06;;;10.82
65316;BMP280;51920;53.952;10.292;2022-11-02T00:10:07;101051.66;;;10.80
65316;BMP280;51920;53.952;10.292;2022-11-02T00:12:33;101043.44;;;10.73
65316;BMP280;51920;53.952;10.292;2022-11-02T00:14:59;101037.31;;;10.76
65316;BMP280;51920;53.952;10.292;2022-11-02T00:17:24;101036.50;;;10.72
65316;BMP280;51920;53.952;10.292;2022-11-02T00:19:50;101030.25;;;10.68
65316;BMP280;51920;53.952;10.292;2022-11-02T00:22:15;101045.69;;;10.64
65316;BMP280;51920;53.952;10.292;2022-11-02T00:24:41;101033.28;;;10.63
65316;BMP280;51920;53.952;10.292;2022-11-02T00:27:06;101037.97;;;10.66
65316;BMP280;51920;53.952;10.292;2022-11-02T00:29:33;101024.00;;;10.64
65316;BMP280;51920;53.952;10.292;2022-11-02T00:31:58;101023.94;;;10.56
65316;BMP280;51920;53.952;10.292;2022-11-02T00:34:24;101016.94;;;10.55
65316;BMP280;51920;53.952;10.292;2022-11-02T00:36:49;101014.16;;;10.48
65316;BMP280;51920;53.952;10.292;2022-11-02T00:39:15;101020.13;;;10.61
65316;BMP280;51920;53.952;10.292;2022-11-02T00:41:40;101019.66;;;10.55
65316;BMP280;51920;53.952;10.292;2022-11-02T00:44:06;101013.75;;;10.46
65316;BMP280;51920;53.952;10.292;2022-11-02T00:46:31;101005.22;;;10.44
65316;BMP280;51920;53.952;10.292;2022-11-02T00:48:56;101003.66;;;10.43
65316;BMP280;51920;53.952;10.292;2022-11-02T00:51:22;101002.91;;;10.46
65316;BMP280;51920;53.952;10.292;2022-11-02T00:53:47;101004.25;;;10.60
65316;BMP280;51920;53.952;10.292;2022-11-02T00:56:13;101000.69;;;10.55
65316;BMP280;51920;53.952;10.292;2022-11-02T00:58:38;101004.53;;;10.51
65316;BMP280;51920;53.952;10.292;2022-11-02T01:01:05;101013.38;;;10.48
65316;BMP280;51920;53.952;10.292;2022-11-02T01:03:31;100995.88;;;10.38
65316;BMP280;51920;53.952;10.292;2022-11-02T01:05:56;101005.16;;;10.37
65316;BMP280;51920;53.952;10.292;2022-11-02T01:08:21;100994.63;;;10.32
65316;BMP280;51920;53.952;10.292;2022-11-02T01:10:47;100982.66;;;10.29
65316;BMP280;51920;53.952;10.292;2022-11-02T01:13:12;100984.97;;;10.31
65316;BMP280;51920;53.952;10.292;2022-11-02T01:15:38;100992.84;;;10.47
65316;BMP280;51920;53.952;10.292;2022-11-02T01:18:04;100987.88;;;10.49
65316;BMP280;51920;53.952;10.292;2022-11-02T01:20:30;100990.22;;;10.50
65316;BMP280;51920;53.952;10.292;2022-11-02T01:22:56;100980.94;;;10.51
65316;BMP280;51920;53.952;10.292;2022-11-02T01:25:23;100971.25;;;10.50
65316;BMP280;51920;53.952;10.292;2022-11-02T01:27:49;100976.00;;;10.61
65316;BMP280;51920;53.952;10.292;2022-11-02T01:30:15;100969.69;;;10.49
65316;BMP280;51920;53.952;10.292;2022-11-02T01:32:42;100969.06;;;10.63
65316;BMP280;51920;53.952;10.292;2022-11-02T01:35:07;100969.44;;;10.62
65316;BMP280;51920;53.952;10.292;2022-11-02T01:37:35;100965.19;;;10.64
65316;BMP280;51920;53.952;10.292;2022-11-02T01:40:01;100965.16;;;10.61
65316;BMP280;51920;53.952;10.292;2022-11-02T01:42:26;100972.94;;;10.66
65316;BMP280;51920;53.952;10.292;2022-11-02T01:44:54;100965.59;;;10.66
65316;BMP280;51920;53.952;10.292;2022-11-02T01:47:26;100969.16;;;10.70
65316;BMP280;51920;53.952;10.292;2022-11-02T01:49:56;100957.84;;;10.65
65316;BMP280;51920;53.952;10.292;2022-11-02T01:52:30;100954.34;;;10.64
65316;BMP280;51920;53.952;10.292;2022-11-02T01:55:05;100953.69;;;10.74
65316;BMP280;51920;53.952;10.292;2022-11-02T01:57:34;100945.53;;;10.71
65316;BMP280;51920;53.952;10.292;2022-11-02T02:02:44;100928.03;;;10.61
65316;BMP280;51920;53.952;10.292;2022-11-02T02:05:12;100949.88;;;10.79
65316;BMP280;51920;53.952;10.292;2022-11-02T02:07:39;100954.09;;;10.76
65316;BMP280;51920;53.952;10.292;2022-11-02T02:10:06;100957.59;;;10.77
65316;BMP280;51920;53.952;10.292;2022-11-02T02:12:33;100945.97;;;10.76
65316;BMP280;51920;53.952;10.292;2022-11-02T02:14:59;100930.41;;;10.70
65316;BMP280;51920;53.952;10.292;2022-11-02T02:17:36;100932.03;;;10.78
65316;BMP280;51920;53.952;10.292;2022-11-02T02:31:51;100929.13;;;11.01
65316;BMP280;51920;53.952;10.292;2022-11-02T02:34:14;100917.56;;;11.08
65316;BMP280;51920;53.952;10.292;2022-11-02T02:36:49;100905.09;;;10.99
65316;BMP280;51920;53.952;10.292;2022-11-02T02:39:31;100905.56;;;11.09
65316;BMP280;51920;53.952;10.292;2022-11-02T02:45:11;100913.69;;;11.12
65316;BMP280;51920;53.952;10.292;2022-11-02T02:47:53;100915.34;;;11.24
65316;BMP280;51920;53.952;10.292;2022-11-02T02:50:23;100915.28;;;11.13
65316;BMP280;51920;53.952;10.292;2022-11-02T02:52:52;100908.75;;;11.18
65316;BMP280;51920;53.952;10.292;2022-11-02T02:55:22;100909.84;;;11.13
65316;BMP280;51920;53.952;10.292;2022-11-02T02:57:50;100903.69;;;11.16
65316;BMP280;51920;53.952;10.292;2022-11-02T03:00:17;100907.50;;;11.08
65316;BMP280;51920;53.952;10.292;2022-11-02T03:02:46;100905.94;;;11.04
65316;BMP280;51920;53.952;10.292;2022-11-02T03:05:29;100922.94;;;11.01
65316;BMP280;51920;53.952;10.292;2022-11-02T03:07:59;100918.47;;;11.26
65316;BMP280;51920;53.952;10.292;2022-11-02T03:10:30;100921.81;;;11.09
65316;BMP280;51920;53.952;10.292;2022-11-02T03:13:09;100916.00;;;11.07
65316;BMP280;51920;53.952;10.292;2022-11-02T03:15:52;100910.16;;;11.05
65316;BMP280;51920;53.952;10.292;2022-11-02T03:23:54;100916.84;;;11.11
65316;BMP280;51920;53.952;10.292;2022-11-02T03:26:46;100909.06;;;11.13
65316;BMP280;51920;53.952;10.292;2022-11-02T03:29:27;100898.91;;;10.95
65316;BMP280;51920;53.952;10.292;2022-11-02T03:31:59;100909.69;;;10.92
65316;BMP280;51920;53.952;10.292;2022-11-02T03:34:47;100911.59;;;10.88
65316;BMP280;51920;53.952;10.292;2022-11-02T03:37:39;100899.59;;;10.85
65316;BMP280;51920;53.952;10.292;2022-11-02T03:40:13;100897.41;;;11.09
65316;BMP280;51920;53.952;10.292;2022-11-02T03:42:42;100893.34;;;10.81
65316;BMP280;51920;53.952;10.292;2022-11-02T03:45:12;100884.34;;;10.70
65316;BMP280;51920;53.952;10.292;2022-11-02T03:47:46;100894.81;;;10.71
65316;BMP280;51920;53.952;10.292;2022-11-02T03:50:16;100897.16;;;10.73
65316;BMP280;51920;53.952;10.292;2022-11-02T03:52:44;100892.97;;;10.79
65316;BMP280;51920;53.952;10.292;2022-11-02T03:55:14;100895.69;;;10.79
65316;BMP280;51920;53.952;10.292;2022-11-02T03:57:47;100886.25;;;10.66
65316;BMP280;51920;53.952;10.292;2022-11-02T04:00:23;100882.81;;;10.69
65316;BMP280;51920;53.952;10.292;2022-11-02T04:03:01;100898.00;;;10.77
65316;BMP280;51920;53.952;10.292;2022-11-02T04:05:33;100890.25;;;10.79
65316;BMP280;51920;53.952;10.292;2022-11-02T04:08:03;100885.53;;;10.69
65316;BMP280;51920;53.952;10.292;2022-11-02T04:10:52;100890.94;;;10.72
65316;BMP280;51920;53.952;10.292;2022-11-02T04:13:38;100894.84;;;10.75
65316;BMP280;51920;53.952;10.292;2022-11-02T04:16:24;100894.00;;;10.67
65316;BMP280;51920;53.952;10.292;2022-11-02T04:18:49;100900.19;;;10.68
65316;BMP280;51920;53.952;10.292;2022-11-02T04:21:33;100904.78;;;10.60
65316;BMP280;51920;53.952;10.292;2022-11-02T04:24:02;100896.63;;;10.56
65316;BMP280;51920;53.952;10.292;2022-11-02T04:26:46;100902.38;;;10.51
65316;BMP280;51920;53.952;10.292;2022-11-02T04:29:12;100888.03;;;10.47
65316;BMP280;51920;53.952;10.292;2022-11-02T04:31:38;100896.25;;;10.54
65316;BMP280;51920;53.952;10.292;2022-11-02T04:34:03;100884.44;;;10.40
65316;BMP280;51920;53.952;10.292;2022-11-02T04:36:30;100898.44;;;10.42
65316;BMP280;51920;53.952;10.292;2022-11-02T04:38:57;100888.72;;;10.37
65316;BMP280;51920;53.952;10.292;2022-11-02T04:41:27;100897.63;;;10.38
65316;BMP280;51920;53.952;10.292;2022-11-02T04:44:26;100901.50;;;10.40
65316;BMP280;51920;53.952;10.292;2022-11-02T04:46:58;100890.66;;;10.37
65316;BMP280;51920;53.952;10.292;2022-11-02T04:49:26;100900.00;;;10.46
65316;BMP280;51920;53.952;10.292;2022-11-02T04:51:52;100883.69;;;10.39
65316;BMP280;51920;53.952;10.292;2022-11-02T04:54:18;100875.06;;;10.26
65316;BMP280;51920;53.952;10.292;2022-11-02T04:56:46;100873.91;;;10.27
65316;BMP280;51920;53.952;10.292;2022-11-02T04:59:12;100874.00;;;10.34
65316;BMP280;51920;53.952;10.292;2022-11-02T05:01:38;100875.94;;;10.38
65316;BMP280;51920;53.952;10.292;2022-11-02T05:04:04;100868.19;;;10.36
65316;BMP280;51920;53.952;10.292;2022-11-02T05:06:32;100857.28;;;10.29
65316;BMP280;51920;53.952;10.292;2022-11-02T05:08:57;100867.06;;;10.37
65316;BMP280;51920;53.952;10.292;2022-11-02T05:11:23;100869.00;;;10.40
65316;BMP280;51920;53.952;10.292;2022-11-02T05:13:49;100872.13;;;10.42
65316;BMP280;51920;53.952;10.292;2022-11-02T05:16:16;100871.41;;;10.45
65316;BMP280;51920;53.952;10.292;2022-11-02T05:18:42;100849.63;;;10.34
65316;BMP280;51920;53.952;10.292;2022-11-02T05:21:09;100877.19;;;10.47
65316;BMP280;51920;53.952;10.292;2022-11-02T05:23:34;100882.28;;;10.52
65316;BMP280;51920;53.952;10.292;2022-11-02T05:26:02;100876.09;;;10.55
65316;BMP280;51920;53.952;10.292;2022-11-02T05:28:30;100871.06;;;10.50
65316;BMP280;51920;53.952;10.292;2022-11-02T05:31:00;100875.72;;;10.57
65316;BMP280;51920;53.952;10.292;2022-11-02T05:33:29;100876.09;;;10.55
65316;BMP280;51920;53.952;10.292;2022-11-02T05:35:57;100875.41;;;10.66
65316;BMP280;51920;53.952;10.292;2022-11-02T05:38:24;100873.38;;;10.55
65316;BMP280;51920;53.952;10.292;2022-11-02T05:40:54;100863.44;;;10.67
65316;BMP280;51920;53.952;10.292;2022-11-02T05:43:21;100869.28;;;10.69
65316;BMP280;51920;53.952;10.292;2022-11-02T05:45:55;100864.31;;;10.82
65316;BMP280;51920;53.952;10.292;2022-11-02T05:48:21;100872.47;;;10.85
65316;BMP280;51920;53.952;10.292;2022-11-02T05:50:47;100873.69;;;10.91
65316;BMP280;51920;53.952;10.292;2022-11-02T05:53:13;100872.06;;;10.83
65316;BMP280;51920;53.952;10.292;2022-11-02T05:55:38;100875.97;;;10.89
65316;BMP280;51920;53.952;10.292;2022-11-02T05:58:04;100868.66;;;10.90
65316;BMP280;51920;53.952;10.292;2022-11-02T06:00:29;100876.78;;;10.90
65316;BMP280;51920;53.952;10.292;2022-11-02T06:02:56;100881.13;;;11.02
65316;BMP280;51920;53.952;10.292;2022-11-02T06:05:22;100881.41;;;10.89
65316;BMP280;51920;53.952;10.292;2022-11-02T06:07:48;100877.91;;;10.85
65316;BMP280;51920;53.952;10.292;2022-11-02T06:10:13;100882.16;;;10.83
65316;BMP280;51920;53.952;10.292;2022-11-02T06:12:38;100872.88;;;10.87
65316;BMP280;51920;53.952;10.292;2022-11-02T06:15:04;100878.63;;;10.82
65316;BMP280;51920;53.952;10.292;2022-11-02T06:17:36;100883.75;;;10.91
65316;BMP280;51920;53.952;10.292;2022-11-02T06:20:02;100866.28;;;10.85
65316;BMP280;51920;53.952;10.292;2022-11-02T06:22:27;100869.00;;;10.85
65316;BMP280;51920;53.952;10.292;2022-11-02T06:24:53;100865.94;;;10.86
65316;BMP280;51920;53.952;10.292;2022-11-02T06:27:18;100876.47;;;10.98
65316;BMP280;51920;53.952;10.292;2022-11-02T06:29:44;100871.72;;;10.85
65316;BMP280;51920;53.952;10.292;2022-11-02T06:32:10;100880.97;;;10.84
65316;BMP280;51920;53.952;10.292;2022-11-02T06:34:35;100877.13;;;10.85
65316;BMP280;51920;53.952;10.292;2022-11-02T06:37:00;100883.31;;;10.85
65316;BMP280;51920;53.952;10.292;2022-11-02T06:39:25;100883.44;;;11.03
65316;BMP280;51920;53.952;10.292;2022-11-02T06:41:51;100887.69;;;11.01
65316;BMP280;51920;53.952;10.292;2022-11-02T06:44:16;100889.28;;;11.09
65316;BMP280;51920;53.952;10.292;2022-11-02T06:46:42;100887.00;;;11.11
65316;BMP280;51920;53.952;10.292;2022-11-02T06:49:07;100888.53;;;11.12
65316;BMP280;51920;53.952;10.292;2022-11-02T06:51:32;100888.53;;;11.12
65316;BMP280;51920;53.952;10.292;2022-11-02T06:53:58;100899.84;;;11.25
65316;BMP280;51920;53.952;10.292;2022-11-02T06:56:23;100908.00;;;11.28
65316;BMP280;51920;53.952;10.292;2022-11-02T06:58:49;100910.34;;;11.26
65316;BMP280;51920;53.952;10.292;2022-11-02T07:01:15;100910.00;;;11.35
65316;BMP280;51920;53.952;10.292;2022-11-02T07:03:41;100915.06;;;11.44
65316;BMP280;51920;53.952;10.292;2022-11-02T07:06:06;100924.78;;;11.45
65316;BMP280;51920;53.952;10.292;2022-11-02T07:08:32;100927.16;;;11.50
65316;BMP280;51920;53.952;10.292;2022-11-02T07:10:57;100924.81;;;11.52
65316;BMP280;51920;53.952;10.292;2022-11-02T07:13:23;100931.69;;;11.38
65316;BMP280;51920;53.952;10.292;2022-11-02T07:15:52;100918.88;;;11.32
65316;BMP280;51920;53.952;10.292;2022-11-02T07:18:18;100924.38;;;11.39
65316;BMP280;51920;53.952;10.292;2022-11-02T07:20:43;100914.69;;;11.45
65316;BMP280;51920;53.952;10.292;2022-11-02T07:23:08;100925.28;;;11.65
65316;BMP280;51920;53.952;10.292;2022-11-02T07:25:34;100925.72;;;11.81
65316;BMP280;51920;53.952;10.292;2022-11-02T07:28:00;100928.13;;;12.04
65316;BMP280;51920;53.952;10.292;2022-11-02T07:30:27;100926.97;;;12.05
65316;BMP280;51920;53.952;10.292;2022-11-02T07:32:52;100922.72;;;12.18
65316;BMP280;51920;53.952;10.292;2022-11-02T07:35:18;100924.31;;;12.34
65316;BMP280;51920;53.952;10.292;2022-11-02T07:37:43;100922.00;;;12.39
65316;BMP280;51920;53.952;10.292;2022-11-02T07:40:10;100906.44;;;12.33
65316;BMP280;51920;53.952;10.292;2022-11-02T07:42:43;100919.66;;;12.27
65316;BMP280;51920;53.952;10.292;2022-11-02T07:45:10;100928.16;;;12.25
65316;BMP280;51920;53.952;10.292;2022-11-02T07:47:44;100926.66;;;12.24
65316;BMP280;51920;53.952;10.292;2022-11-02T07:50:11;100929.38;;;12.32
65316;BMP280;51920;53.952;10.292;2022-11-02T07:53:06;100927.81;;;12.31
65316;BMP280;51920;53.952;10.292;2022-11-02T07:55:33;100924.34;;;12.41
65316;BMP280;51920;53.952;10.292;2022-11-02T07:58:03;100930.53;;;12.23
65316;BMP280;51920;53.952;10.292;2022-11-02T08:00:31;100928.56;;;12.17
65316;BMP280;51920;53.952;10.292;2022-11-02T08:02:59;100917.28;;;12.08
65316;BMP280;51920;53.952;10.292;2022-11-02T08:05:26;100913.81;;;12.18
65316;BMP280;51920;53.952;10.292;2022-11-02T08:08:03;100914.25;;;12.38
65316;BMP280;51920;53.952;10.292;2022-11-02T08:10:30;100916.59;;;12.64
65316;BMP280;51920;53.952;10.292;2022-11-02T08:12:56;100925.53;;;12.68
65316;BMP280;51920;53.952;10.292;2022-11-02T08:15:22;100925.16;;;12.84
65316;BMP280;51920;53.952;10.292;2022-11-02T08:17:47;100919.28;;;12.82
65316;BMP280;51920;53.952;10.292;2022-11-02T08:20:23;100929.78;;;12.98
65316;BMP280;51920;53.952;10.292;2022-11-02T08:22:48;100928.97;;;13.16
65316;BMP280;51920;53.952;10.292;2022-11-02T08:25:14;100927.38;;;13.40
65316;BMP280;51920;53.952;10.292;2022-11-02T08:27:39;100932.78;;;13.54
65316;BMP280;51920;53.952;10.292;2022-11-02T08:30:06;100941.78;;;13.29
65316;BMP280;51920;53.952;10.292;2022-11-02T08:32:32;100936.34;;;13.33
65316;BMP280;51920;53.952;10.292;2022-11-02T08:34:57;100939.09;;;13.12
65316;BMP280;51920;53.952;10.292;2022-11-02T08:37:22;100942.22;;;13.06
65316;BMP280;51920;53.952;10.292;2022-11-02T08:39:48;100950.38;;;12.96
65316;BMP280;51920;53.952;10.292;2022-11-02T08:42:13;100944.94;;;12.92
65316;BMP280;51920;53.952;10.292;2022-11-02T08:44:39;100938.34;;;13.00
65316;BMP280;51920;53.952;10.292;2022-11-02T08:47:05;100952.72;;;12.97
65316;BMP280;51920;53.952;10.292;2022-11-02T08:49:30;100949.22;;;12.93
65316;BMP280;51920;53.952;10.292;2022-11-02T08:51:55;100952.31;;;12.95
65316;BMP280;51920;53.952;10.292;2022-11-02T08:54:21;100944.16;;;13.02
65316;BMP280;51920;53.952;10.292;2022-11-02T08:56:46;100956.97;;;12.87
65316;BMP280;51920;53.952;10.292;2022-11-02T08:59:11;100956.56;;;12.89
65316;BMP280;51920;53.952;10.292;2022-11-02T09:01:37;100949.19;;;12.89
65316;BMP280;51920;53.952;10.292;2022-11-02T09:04:03;100959.31;;;12.93
65316;BMP280;51920;53.952;10.292;2022-11-02T09:06:29;100956.19;;;12.91
65316;BMP280;51920;53.952;10.292;2022-11-02T09:08:54;100955.44;;;13.08
65316;BMP280;51920;53.952;10.292;2022-11-02T09:11:19;100960.09;;;12.97
65316;BMP280;51920;53.952;10.292;2022-11-02T09:13:45;100964.34;;;13.08
65316;BMP280;51920;53.952;10.292;2022-11-02T09:16:10;100963.97;;;12.99
65316;BMP280;51920;53.952;10.292;2022-11-02T09:18:36;100947.66;;;12.96
65316;BMP280;51920;53.952;10.292;2022-11-02T09:21:03;100964.72;;;13.03
65316;BMP280;51920;53.952;10.292;2022-11-02T09:23:29;100972.47;;;13.16
65316;BMP280;51920;53.952;10.292;2022-11-02T09:25:54;100965.53;;;13.22
65316;BMP280;51920;53.952;10.292;2022-11-02T09:28:20;100959.25;;;13.36
65316;BMP280;51920;53.952;10.292;2022-11-02T09:30:45;100969.72;;;13.44
65316;BMP280;51920;53.952;10.292;2022-11-02T09:33:11;100970.47;;;13.56
65316;BMP280;51920;53.952;10.292;2022-11-02T09:35:43;100975.44;;;13.86
65316;BMP280;51920;53.952;10.292;2022-11-02T09:38:09;100976.22;;;13.75
65316;BMP280;51920;53.952;10.292;2022-11-02T09:40:37;100978.63;;;13.66
65316;BMP280;51920;53.952;10.292;2022-11-02T09:43:19;100984.84;;;13.60
65316;BMP280;51920;53.952;10.292;2022-11-02T09:46:39;100984.84;;;13.60
65316;BMP280;51920;53.952;10.292;2022-11-02T09:48:46;100986.84;;;13.38
65316;BMP280;51920;53.952;10.292;2022-11-02T09:54:12;100993.06;;;13.42
65316;BMP280;51920;53.952;10.292;2022-11-02T09:56:40;100988.03;;;13.40
65316;BMP280;51920;53.952;10.292;2022-11-02T09:59:19;101000.84;;;13.36
65316;BMP280;51920;53.952;10.292;2022-11-02T10:07:31;100989.19;;;13.46
65316;BMP280;51920;53.952;10.292;2022-11-02T10:10:04;100989.94;;;13.50
65316;BMP280;51920;53.952;10.292;2022-11-02T10:12:59;100994.16;;;13.55
65316;BMP280;51920;53.952;10.292;2022-11-02T10:16:36;100993.38;;;13.72
65316;BMP280;51920;53.952;10.292;2022-11-02T10:18:30;100994.22;;;13.59
65316;BMP280;51920;53.952;10.292;2022-11-02T10:20:58;101000.44;;;13.48
65316;BMP280;51920;53.952;10.292;2022-11-02T10:23:39;101001.03;;;13.95
65316;BMP280;51920;53.952;10.292;2022-11-02T10:26:06;101002.69;;;13.75
65316;BMP280;51920;53.952;10.292;2022-11-02T10:28:36;101008.47;;;13.88
65316;BMP280;51920;53.952;10.292;2022-11-02T10:31:03;100988.72;;;13.73
65316;BMP280;51920;53.952;10.292;2022-11-02T10:33:37;100992.66;;;13.54
65316;BMP280;51920;53.952;10.292;2022-11-02T10:36:27;101006.69;;;13.24
65316;BMP280;51920;53.952;10.292;2022-11-02T10:39:23;101015.25;;;13.12
65316;BMP280;51920;53.952;10.292;2022-11-02T10:41:58;101014.06;;;13.05
65316;BMP280;51920;53.952;10.292;2022-11-02T10:44:55;101033.13;;;13.23
65316;BMP280;51920;53.952;10.292;2022-11-02T10:47:26;101037.78;;;13.26
65316;BMP280;51920;53.952;10.292;2022-11-02T10:52:36;101022.94;;;13.63
65316;BMP280;51920;53.952;10.292;2022-11-02T10:55:03;101025.31;;;13.54
65316;BMP280;51920;53.952;10.292;2022-11-02T10:57:31;101034.16;;;13.83
65316;BMP280;51920;53.952;10.292;2022-11-02T11:03:03;101027.78;;;14.22
65316;BMP280;51920;53.952;10.292;2022-11-02T11:05:28;101041.09;;;14.09
65316;BMP280;51920;53.952;10.292;2022-11-02T11:07:54;101034.13;;;13.98
65316;BMP280;51920;53.952;10.292;2022-11-02T11:10:22;101042.69;;;13.96
65316;BMP280;51920;53.952;10.292;2022-11-02T11:12:48;101053.66;;;13.85
65316;BMP280;51920;53.952;10.292;2022-11-02T11:15:29;101044.72;;;13.67
65316;BMP280;51920;53.952;10.292;2022-11-02T11:17:55;101058.00;;;13.22
65316;BMP280;51920;53.952;10.292;2022-11-02T11:20:52;101076.59;;;13.02
65316;BMP280;51920;53.952;10.292;2022-11-02T11:23:24;101077.41;;;12.81
65316;BMP280;51920;53.952;10.292;2022-11-02T11:26:04;101079.28;;;12.70
65316;BMP280;51920;53.952;10.292;2022-11-02T11:28:51;101078.16;;;12.78
65316;BMP280;51920;53.952;10.292;2022-11-02T11:31:17;101083.56;;;12.71
65316;BMP280;51920;53.952;10.292;2022-11-02T11:33:53;101081.59;;;12.67
65316;BMP280;51920;53.952;10.292;2022-11-02T11:36:21;101073.84;;;12.77
65316;BMP280;51920;53.952;10.292;2022-11-02T11:38:48;101068.06;;;12.93
65316;BMP280;51920;53.952;10.292;2022-11-02T11:41:15;101068.88;;;12.97
65316;BMP280;51920;53.952;10.292;2022-11-02T11:43:41;101077.44;;;13.06
65316;BMP280;51920;53.952;10.292;2022-11-02T11:46:10;101080.50;;;13.15
65316;BMP280;51920;53.952;10.292;2022-11-02T11:48:52;101068.09;;;13.25
65316;BMP280;51920;53.952;10.292;2022-11-02T11:51:36;101085.22;;;13.40
65316;BMP280;51920;53.952;10.292;2022-11-02T11:54:32;101085.97;;;13.47
65316;BMP280;51920;53.952;10.292;2022-11-02T11:56:58;101096.81;;;13.62
65316;BMP280;51920;53.952;10.292;2022-11-02T11:59:29;101093.38;;;13.47
65316;BMP280;51920;53.952;10.292;2022-11-02T12:02:00;101093.75;;;13.52
65316;BMP280;51920;53.952;10.292;2022-11-02T12:04:28;101103.06;;;13.51
65316;BMP280;51920;53.952;10.292;2022-11-02T12:06:57;101092.94;;;13.63
65316;BMP280;51920;53.952;10.292;2022-11-02T12:17:48;101083.53;;;14.03
65316;BMP280;51920;53.952;10.292;2022-11-02T12:25:44;101087.41;;;14.09
65316;BMP280;51920;53.952;10.292;2022-11-02T12:31:46;101115.81;;;14.08
65316;BMP280;51920;53.952;10.292;2022-11-02T12:36:29;101193.47;;;12.77
65316;BMP280;51920;53.952;10.292;2022-11-02T12:39:00;101164.94;;;12.35
65316;BMP280;51920;53.952;10.292;2022-11-02T12:41:44;101190.72;;;12.00
65316;BMP280;51920;53.952;10.292;2022-11-02T12:54:47;101182.44;;;11.04
65316;BMP280;51920;53.952;10.292;2022-11-02T12:57:20;101191.53;;;10.88
65316;BMP280;51920;53.952;10.292;2022-11-02T12:59:48;101199.63;;;10.85
65316;BMP280;51920;53.952;10.292;2022-11-02T13:02:41;101185.56;;;10.45
65316;BMP280;51920;53.952;10.292;2022-11-02T13:05:15;101223.47;;;10.45
65316;BMP280;51920;53.952;10.292;2022-11-02T13:08:10;101224.09;;;10.35
65316;BMP280;51920;53.952;10.292;2022-11-02T13:10:49;101237.63;;;10.35
65316;BMP280;51920;53.952;10.292;2022-11-02T13:13:23;101243.47;;;10.37
65316;BMP280;51920;53.952;10.292;2022-11-02T13:15:51;101260.09;;;10.39
65316;BMP280;51920;53.952;10.292;2022-11-02T13:18:25;101276.25;;;10.32
65316;BMP280;51920;53.952;10.292;2022-11-02T13:20:54;101270.19;;;10.15
65316;BMP280;51920;53.952;10.292;2022-11-02T13:26:01;101291.25;;;10.26
65316;BMP280;51920;53.952;10.292;2022-11-02T13:28:47;101311.78;;;10.07
65316;BMP280;51920;53.952;10.292;2022-11-02T13:31:17;101296.53;;;10.19
65316;BMP280;51920;53.952;10.292;2022-11-02T13:33:47;101303.91;;;9.99
65316;BMP280;51920;53.952;10.292;2022-11-02T13:36:13;101278.22;;;9.89
65316;BMP280;51920;53.952;10.292;2022-11-02T13:46:53;101344.28;;;9.88
65316;BMP280;51920;53.952;10.292;2022-11-02T13:49:36;101349.56;;;9.81
65316;BMP280;51920;53.952;10.292;2022-11-02T13:52:04;101350.72;;;9.80
65316;BMP280;51920;53.952;10.292;2022-11-02T13:54:43;101345.72;;;9.62
65316;BMP280;51920;53.952;10.292;2022-11-02T13:57:52;101340.31;;;9.62
65316;BMP280;51920;53.952;10.292;2022-11-02T14:03:01;101319.09;;;9.64
65316;BMP280;51920;53.952;10.292;2022-11-02T14:05:33;101331.94;;;9.67
65316;BMP280;51920;53.952;10.292;2022-11-02T14:08:06;101332.63;;;9.64
65316;BMP280;51920;53.952;10.292;2022-11-02T14:10:38;101327.09;;;9.57
65316;BMP280;51920;53.952;10.292;2022-11-02T14:13:03;101349.44;;;9.73
65316;BMP280;51920;53.952;10.292;2022-11-02T14:36:41;101305.06;;;9.98
65316;BMP280;51920;53.952;10.292;2022-11-02T14:39:49;101301.53;;;9.97
65316;BMP280;51920;53.952;10.292;2022-11-02T14:48:02;101308.19;;;10.23
65316;BMP280;51920;53.952;10.292;2022-11-02T14:50:29;101310.91;;;10.23
65316;BMP280;51920;53.952;10.292;2022-11-02T14:53:07;101301.16;;;10.18
65316;BMP280;51920;53.952;10.292;2022-11-02T14:55:39;101306.22;;;10.20
65316;BMP280;51920;53.952;10.292;2022-11-02T14:58:17;101306.75;;;10.29
65316;BMP280;51920;53.952;10.292;2022-11-02T15:05:58;101300.00;;;9.96
65316;BMP280;51920;53.952;10.292;2022-11-02T15:08:33;101315.03;;;9.93
65316;BMP280;51920;53.952;10.292;2022-11-02T15:17:02;101323.66;;;9.80
65316;BMP280;51920;53.952;10.292;2022-11-02T15:19:41;101324.44;;;9.80
65316;BMP280;51920;53.952;10.292;2022-11-02T15:27:34;101319.59;;;9.70
65316;BMP280;51920;53.952;10.292;2022-11-02T15:30:00;101329.50;;;9.62
65316;BMP280;51920;53.952;10.292;2022-11-02T15:32:27;101324.44;;;9.61
65316;BMP280;51920;53.952;10.292;2022-11-02T15:34:54;101319.38;;;9.59
65316;BMP280;51920;53.952;10.292;2022-11-02T15:37:21;101333.47;;;9.68
65316;BMP280;51920;53.952;10.292;2022-11-02T15:40:01;101319.38;;;9.59
65316;BMP280;51920;53.952;10.292;2022-11-02T15:43:05;101301.28;;;9.44
65316;BMP280;51920;53.952;10.292;2022-11-02T15:57:01;101338.84;;;9.29
65316;BMP280;51920;53.952;10.292;2022-11-02T15:59:45;101338.53;;;9.15
65316;BMP280;51920;53.952;10.292;2022-11-02T16:02:40;101341.91;;;9.12
65316;BMP280;51920;53.952;10.292;2022-11-02T16:05:15;101343.16;;;9.15
65316;BMP280;51920;53.952;10.292;2022-11-02T16:07:45;101351.09;;;9.07
65316;BMP280;51920;53.952;10.292;2022-11-02T16:10:30;101350.56;;;9.02
65316;BMP280;51920;53.952;10.292;2022-11-02T16:13:12;101355.28;;;9.05
65316;BMP280;51920;53.952;10.292;2022-11-02T16:15:38;101360.97;;;9.00
65316;BMP280;51920;53.952;10.292;2022-11-02T16:18:25;101363.69;;;9.00
65316;BMP280;51920;53.952;10.292;2022-11-02T16:20:56;101372.19;;;9.02